Terminal Aerodrome Forecast
Issued by NWS

Home | Current Version | Previous Version | Text Only | Print | Product List | Glossary On
Versions: 1 2 3 4 5 6 7 8 9 10 11 12 13 14 15
000
FTUS41 KALY 271120
TAFPSF
TAF
KPSF 271120Z 2712/2812 30006KT P6SM VCSH SCT030 OVC080
      TEMPO 2712/2714 -SHRA BKN030 OVC060
     FM271400 33007G17KT P6SM VCSH BKN030 OVC045
     FM271800 33009G19KT P6SM -SHRA OVC030
     FM280000 32007G17KT P6SM -SHRA OVC020
     FM280300 30005KT P6SM VCSH BKN015=

USA.gov is the U.S. government's official web portal to all federal, state and local government web resources and services.